createdAt,value
2017-07-15T00:00:28.579Z,94.07
2017-07-15T00:01:25.295Z,93.88
2017-07-15T00:02:24.434Z,94.07
2017-07-15T00:03:24.099Z,93.88
2017-07-15T00:04:24.440Z,93.88
2017-07-15T00:05:30.572Z,93.78
2017-07-15T00:06:24.606Z,94.45
2017-07-15T00:07:24.441Z,93.4
2017-07-15T00:08:24.117Z,93.98
2017-07-15T00:09:24.109Z,93.88
2017-07-15T00:11:24.216Z,93.21
2017-07-15T00:12:24.109Z,93.21
2017-07-15T00:13:24.541Z,92.06
2017-07-15T00:14:24.522Z,91.67
2017-07-15T00:15:28.227Z,91.1
2017-07-15T00:16:27.345Z,90.62
2017-07-15T00:17:24.118Z,90.62
2017-07-15T00:18:24.455Z,89.95
2017-07-15T00:19:24.479Z,89.76
2017-07-15T00:20:29.483Z,89.95
2017-07-15T00:21:24.621Z,90.05
2017-07-15T00:22:24.247Z,90.33
2017-07-15T00:23:24.122Z,90.91
2017-07-15T00:24:24.166Z,91.39
2017-07-15T00:25:31.775Z,90.14
2017-07-15T00:26:24.607Z,90.81
2017-07-15T00:27:24.144Z,91.1
2017-07-15T00:28:24.499Z,92.06
2017-07-15T00:29:24.176Z,92.82
2017-07-15T00:30:32.124Z,93.98
2017-07-15T00:31:24.346Z,93.49
2017-07-15T00:32:24.472Z,93.4
2017-07-15T00:33:24.505Z,92.25
2017-07-15T00:34:24.138Z,93.21
2017-07-15T00:35:33.651Z,93.21
2017-07-15T00:36:24.145Z,93.21
2017-07-15T00:37:24.162Z,93.4
2017-07-15T00:38:24.480Z,93.4
2017-07-15T00:39:24.481Z,93.21
2017-07-15T00:40:31.389Z,94.02
2017-07-15T00:41:24.490Z,93.98
2017-07-15T00:42:24.201Z,92.54
2017-07-15T00:43:24.148Z,92.44
2017-07-15T00:44:24.154Z,92.35
2017-07-15T00:45:31.707Z,92.06
2017-07-15T00:46:24.488Z,92.25
2017-07-15T00:47:24.540Z,91.96
2017-07-15T00:48:24.490Z,90.72
2017-07-15T00:49:24.604Z,90.43
2017-07-15T00:50:29.957Z,89.86
2017-07-15T00:51:24.490Z,90.14
2017-07-15T00:52:24.495Z,90.33
2017-07-15T00:53:24.164Z,91.49
2017-07-15T00:54:24.273Z,91.49
2017-07-15T00:55:30.835Z,91.67
2017-07-15T00:56:24.514Z,91.39
2017-07-15T00:57:24.588Z,91.67
2017-07-15T00:58:24.162Z,91.58
2017-07-15T00:59:24.170Z,91.29
2017-07-15T01:00:32.461Z,91.82
2017-07-15T01:01:24.515Z,92.21
2017-07-15T01:02:24.170Z,92.21
2017-07-15T01:03:24.508Z,93.35
2017-07-15T01:04:24.177Z,92.49
2017-07-15T01:05:31.087Z,91.92
2017-07-15T01:06:24.176Z,92.11
2017-07-15T01:07:24.174Z,92.97
2017-07-15T01:08:24.511Z,93.35
2017-07-15T01:09:24.177Z,93.74
2017-07-15T01:10:32.440Z,94.31
2017-07-15T01:11:24.226Z,94.02
2017-07-15T01:12:24.182Z,93.83
2017-07-15T01:13:24.521Z,94.5
2017-07-15T01:14:24.523Z,93.64
2017-07-15T01:15:31.846Z,92.97
2017-07-15T01:16:24.525Z,94.02
2017-07-15T01:17:24.524Z,93.16
2017-07-15T01:19:24.522Z,93.45
2017-07-15T01:20:31.388Z,92.3
2017-07-15T01:21:24.527Z,92.4
2017-07-15T01:22:24.523Z,91.82
2017-07-15T01:23:24.535Z,91.63
2017-07-15T01:24:24.193Z,92.11
2017-07-15T01:25:32.188Z,91.63
2017-07-15T01:26:24.528Z,91.82
2017-07-15T01:27:24.196Z,92.21
2017-07-15T01:28:24.195Z,92.3
2017-07-15T01:29:24.534Z,91.34
2017-07-15T01:30:32.590Z,91.53
2017-07-15T01:31:24.229Z,90.29
2017-07-15T01:32:26.741Z,90.86
2017-07-15T01:33:24.538Z,91.63
2017-07-15T01:34:24.544Z,91.15
2017-07-15T01:35:31.260Z,91.05
2017-07-15T01:36:24.537Z,90.86
2017-07-15T01:37:24.540Z,91.82
2017-07-15T01:38:24.543Z,90.67
2017-07-15T01:39:24.552Z,90.67
2017-07-15T01:40:32.697Z,91.15
2017-07-15T01:41:24.540Z,91.44
2017-07-15T01:42:24.547Z,91.05
2017-07-15T01:43:24.206Z,90.67
2017-07-15T01:44:24.542Z,90.67
2017-07-15T01:45:32.422Z,91.53
2017-07-15T01:46:24.548Z,91.25
2017-07-15T01:47:26.449Z,91.25
2017-07-15T01:48:24.549Z,92.21
2017-07-15T01:49:24.552Z,92.3
2017-07-15T01:50:30.740Z,91.72
2017-07-15T01:51:24.550Z,91.82
2017-07-15T01:52:24.596Z,91.72
2017-07-15T01:53:24.302Z,90.96
2017-07-15T01:54:24.216Z,91.05
2017-07-15T01:55:32.050Z,90.86
2017-07-15T01:56:24.563Z,91.05
2017-07-15T01:57:24.565Z,91.72
2017-07-15T01:58:24.557Z,92.11
2017-07-15T01:59:24.555Z,92.01
2017-07-15T02:00:32.340Z,91.92
2017-07-15T02:01:24.555Z,91.82
2017-07-15T02:02:24.221Z,91.34
2017-07-15T02:03:24.222Z,91.72
2017-07-15T02:04:24.224Z,91.92
2017-07-15T02:05:30.996Z,91.53
2017-07-15T02:06:24.225Z,91.82
2017-07-15T02:07:24.561Z,91.92
2017-07-15T02:08:24.566Z,91.82
2017-07-15T02:09:24.564Z,92.01
2017-07-15T02:10:32.207Z,92.01
2017-07-15T02:11:24.238Z,92.01
2017-07-15T02:12:24.246Z,92.49
2017-07-15T02:13:24.569Z,91.53
2017-07-15T02:14:24.245Z,90.96
2017-07-15T02:15:33.578Z,90.19
2017-07-15T02:16:24.237Z,90.58
2017-07-15T02:17:24.236Z,91.15
2017-07-15T02:18:24.311Z,90.58
2017-07-15T02:19:24.710Z,89.72
2017-07-15T02:20:32.846Z,90.58
2017-07-15T02:21:24.243Z,90.39
2017-07-15T02:22:24.576Z,90.09
2017-07-15T02:23:24.586Z,89.9
2017-07-15T02:24:24.647Z,90.19
2017-07-15T02:25:32.000Z,89.43
2017-07-15T02:26:24.246Z,89.04
2017-07-15T02:27:24.585Z,88.85
2017-07-15T02:28:24.591Z,88.66
2017-07-15T02:29:24.592Z,89.14
2017-07-15T02:30:31.521Z,87.51
2017-07-15T02:31:24.588Z,87.13
2017-07-15T02:32:24.250Z,87.99
2017-07-15T02:33:26.152Z,87.03
2017-07-15T02:34:24.608Z,87.8
2017-07-15T02:35:32.141Z,88.09
2017-07-15T02:36:24.671Z,88.47
2017-07-15T02:37:24.614Z,88.18
2017-07-15T02:38:24.654Z,88.09
2017-07-15T02:39:24.614Z,88.47
2017-07-15T02:40:31.537Z,88.47
2017-07-15T02:41:24.263Z,89.14
2017-07-15T02:42:24.267Z,88.66
2017-07-15T02:43:24.662Z,88.95
2017-07-15T02:44:24.615Z,88.85
2017-07-15T02:45:32.564Z,88.66
2017-07-15T02:46:24.600Z,89.23
2017-07-15T02:47:24.618Z,89.33
2017-07-15T02:48:25.964Z,89.04
2017-07-15T02:49:24.273Z,89.33
2017-07-15T02:50:33.207Z,89.14
2017-07-15T02:51:24.622Z,89.43
2017-07-15T02:52:24.360Z,90.19
2017-07-15T02:53:24.625Z,90.58
2017-07-15T02:54:24.275Z,90.19
2017-07-15T02:55:31.210Z,89.52
2017-07-15T02:56:24.645Z,90
2017-07-15T02:57:24.276Z,89.72
2017-07-15T02:58:24.282Z,89.72
2017-07-15T02:59:24.634Z,89.14
2017-07-15T03:00:32.005Z,89.33
2017-07-15T03:01:24.290Z,88.76
2017-07-15T03:02:24.283Z,89.04
2017-07-15T03:03:24.630Z,90.39
2017-07-15T03:04:24.291Z,90.39
2017-07-15T03:05:32.616Z,89.81
2017-07-15T03:06:24.285Z,89.72
2017-07-15T03:07:24.308Z,90.48
2017-07-15T03:08:24.287Z,90.58
2017-07-15T03:09:24.680Z,90.58
2017-07-15T03:10:33.592Z,89.81
2017-07-15T03:11:24.633Z,89.33
2017-07-15T03:12:24.641Z,89.43
2017-07-15T03:13:24.659Z,89.14
2017-07-15T03:14:24.297Z,88.95
2017-07-15T03:15:29.737Z,89.33
2017-07-15T03:16:24.645Z,90.09
2017-07-15T03:17:24.647Z,89.81
2017-07-15T03:18:24.650Z,89.23
2017-07-15T03:19:24.646Z,89.33
2017-07-15T03:20:32.101Z,90.48
2017-07-15T03:21:24.300Z,90.77
2017-07-15T03:22:24.647Z,90.09
2017-07-15T03:23:24.649Z,90
2017-07-15T03:24:24.647Z,89.81
2017-07-15T03:25:32.054Z,89.52
2017-07-15T03:26:24.304Z,89.33
2017-07-15T03:27:24.307Z,89.14
2017-07-15T03:28:24.311Z,89.43
2017-07-15T03:29:24.665Z,89.04
2017-07-15T03:30:30.029Z,87.99
2017-07-15T03:31:24.654Z,88.47
2017-07-15T03:32:24.666Z,89.14
2017-07-15T03:33:24.654Z,89.62
2017-07-15T03:34:24.724Z,89.9
2017-07-15T03:35:33.354Z,89.9
2017-07-15T03:36:24.660Z,89.52
2017-07-15T03:37:24.316Z,90.09
2017-07-15T03:38:24.320Z,90.48
2017-07-15T03:39:24.379Z,90.48
2017-07-15T03:40:32.620Z,90.19
2017-07-15T03:41:24.655Z,90.58
2017-07-15T03:42:24.321Z,90.77
2017-07-15T03:43:24.337Z,90.96
2017-07-15T03:44:24.322Z,90.67
2017-07-15T03:45:32.386Z,90.39
2017-07-15T03:46:24.668Z,90.58
2017-07-15T03:47:24.675Z,90.77
2017-07-15T03:48:24.329Z,90.29
2017-07-15T03:49:25.281Z,90.39
2017-07-15T03:50:33.319Z,90.09
2017-07-15T03:51:24.331Z,90.39
2017-07-15T03:52:24.331Z,90
2017-07-15T03:53:24.681Z,89.81
2017-07-15T03:54:24.720Z,90.19
2017-07-15T03:55:32.265Z,90.29
2017-07-15T03:56:24.675Z,90.58
2017-07-15T03:57:24.337Z,90.58
2017-07-15T03:58:24.345Z,90.58
2017-07-15T03:59:24.757Z,90.09
2017-07-15T04:00:32.596Z,89.9
2017-07-15T04:01:24.341Z,90.58
2017-07-15T04:02:24.345Z,89.9
2017-07-15T04:03:24.343Z,89.62
2017-07-15T04:04:26.083Z,90.09
2017-07-15T04:05:32.542Z,90.09
2017-07-15T04:06:24.348Z,90.39
2017-07-15T04:07:24.688Z,90.58
2017-07-15T04:08:24.705Z,90.48
2017-07-15T04:09:24.684Z,90.14
2017-07-15T04:10:32.802Z,88.8
2017-07-15T04:11:24.354Z,87.08
2017-07-15T04:12:24.710Z,87.17
2017-07-15T04:13:24.716Z,88.13
2017-07-15T04:14:24.713Z,86.88
2017-07-15T04:15:32.014Z,86.31
2017-07-15T04:16:24.723Z,85.35
2017-07-15T04:17:24.713Z,85.06
2017-07-15T04:18:24.710Z,85.16
2017-07-15T04:19:24.721Z,85.06
2017-07-15T04:20:33.121Z,86.21
2017-07-15T04:21:24.362Z,86.41
2017-07-15T04:22:24.367Z,86.12
2017-07-15T04:23:24.366Z,86.98
2017-07-15T04:24:24.725Z,85.74
2017-07-15T04:25:33.803Z,85.35
2017-07-15T04:26:24.715Z,85.74
2017-07-15T04:27:24.718Z,86.02
2017-07-15T04:28:24.717Z,85.25
2017-07-15T04:29:24.722Z,85.06
2017-07-15T04:30:34.100Z,84.58
2017-07-15T04:31:24.376Z,84.05
2017-07-15T04:32:24.378Z,83.29
2017-07-15T04:33:24.381Z,81.85
2017-07-15T04:34:24.439Z,81.98
2017-07-15T04:35:34.178Z,79.91
2017-07-15T04:36:24.723Z,78.77
2017-07-15T04:37:24.733Z,78.32
2017-07-15T04:38:24.732Z,76.79
2017-07-15T04:39:24.395Z,75.29
2017-07-15T04:41:24.403Z,73.02
2017-07-15T04:42:24.406Z,73.69
2017-07-15T04:43:24.411Z,72.54
2017-07-15T04:44:24.751Z,72.73
2017-07-15T04:45:33.143Z,73.85
2017-07-15T04:46:24.805Z,73.94
2017-07-15T04:47:24.425Z,75.2
2017-07-15T04:48:24.766Z,75.54
2017-07-15T04:49:24.440Z,76.84
2017-07-15T04:50:34.122Z,77.33
2017-07-15T04:51:25.729Z,78.77
2017-07-15T04:52:24.774Z,78.86
2017-07-15T04:53:24.436Z,78.72
2017-07-15T04:54:24.784Z,78.72
2017-07-15T04:55:32.430Z,79.68
2017-07-15T04:56:24.495Z,80.35
2017-07-15T04:57:24.451Z,80.74
2017-07-15T04:58:24.450Z,80.7
2017-07-15T04:59:24.793Z,80.41
2017-07-15T05:00:32.200Z,80.12
2017-07-15T05:01:24.507Z,80.89
2017-07-15T05:02:24.795Z,82.52
2017-07-15T05:03:24.796Z,81.95
2017-07-15T05:04:24.806Z,81.56
2017-07-15T05:05:32.604Z,80.51
2017-07-15T05:06:28.165Z,81.08
2017-07-15T05:07:24.482Z,80.32
2017-07-15T05:08:24.816Z,80.35
2017-07-15T05:09:24.811Z,79.97
2017-07-15T05:10:32.478Z,78.92
2017-07-15T05:11:24.811Z,80.16
2017-07-15T05:12:24.523Z,79.49
2017-07-15T05:13:24.817Z,78.92
2017-07-15T05:14:24.823Z,79.68
2017-07-15T05:15:32.867Z,79.01
2017-07-15T05:16:24.825Z,78.88
2017-07-15T05:17:24.828Z,79.93
2017-07-15T05:18:24.829Z,79.93
2017-07-15T05:19:24.837Z,80.79
2017-07-15T05:20:33.950Z,80.41
2017-07-15T05:21:24.839Z,80.7
2017-07-15T05:22:24.510Z,81.08
2017-07-15T05:23:24.506Z,81.27
2017-07-15T05:24:24.841Z,82.23
2017-07-15T05:25:31.746Z,81.18
2017-07-15T05:26:24.540Z,81.46
2017-07-15T05:27:24.508Z,81.27
2017-07-15T05:28:24.851Z,81.08
2017-07-15T05:29:24.850Z,80.6
2017-07-15T05:30:33.577Z,80.79
2017-07-15T05:31:24.855Z,81.18
2017-07-15T05:32:24.855Z,81.62
2017-07-15T05:33:24.861Z,82.23
2017-07-15T05:34:24.538Z,81.46
2017-07-15T05:35:33.891Z,81.81
2017-07-15T05:36:24.529Z,81.43
2017-07-15T05:37:25.414Z,81.18
2017-07-15T05:38:24.547Z,80.99
2017-07-15T05:39:24.870Z,79.01
2017-07-15T05:40:31.993Z,78.53
2017-07-15T05:41:24.871Z,78.05
2017-07-15T05:42:24.600Z,79.01
2017-07-15T05:43:24.537Z,79.01
2017-07-15T05:44:24.551Z,79.21
2017-07-15T05:45:34.833Z,79.01
2017-07-15T05:46:24.561Z,79.74
2017-07-15T05:47:24.934Z,79.26
2017-07-15T05:48:24.888Z,80.41
2017-07-15T05:49:24.887Z,81.18
2017-07-15T05:50:34.666Z,80.41
2017-07-15T05:51:24.892Z,80.7
2017-07-15T05:52:29.849Z,80.99
2017-07-15T05:53:24.563Z,79.59
2017-07-15T05:54:24.561Z,77.04
2017-07-15T05:55:33.271Z,73.14
2017-07-15T05:56:24.899Z,72.31
2017-07-15T05:57:24.918Z,69.27
2017-07-15T05:58:24.911Z,68.44
2017-07-15T05:59:24.911Z,68.7
2017-07-15T06:00:33.438Z,68.31
2017-07-15T06:01:24.915Z,68.7
2017-07-15T06:02:24.918Z,69.34
2017-07-15T06:03:24.925Z,70.74
2017-07-15T06:04:24.926Z,71.76
2017-07-15T06:05:34.068Z,69.97
2017-07-15T06:06:24.595Z,68.76
2017-07-15T06:07:24.950Z,67.35
2017-07-15T06:08:24.937Z,62.58
2017-07-15T06:09:24.605Z,62.23
2017-07-15T06:10:33.758Z,60.72
2017-07-15T06:11:24.618Z,59.81
2017-07-15T06:12:24.956Z,56.92
2017-07-15T06:13:24.677Z,56.44
2017-07-15T06:14:24.967Z,56.44
2017-07-15T06:15:34.707Z,55.7
2017-07-15T06:16:24.640Z,54.54
2017-07-15T06:17:24.976Z,53.87
2017-07-15T06:18:25.030Z,53.99
2017-07-15T06:19:24.990Z,54.83
2017-07-15T06:20:32.829Z,53.67
2017-07-15T06:21:24.999Z,53.51
2017-07-15T06:22:24.669Z,54.06
2017-07-15T06:23:27.409Z,54.16
2017-07-15T06:24:25.017Z,54.71
2017-07-15T06:25:32.453Z,56.05
2017-07-15T06:26:24.689Z,55.65
2017-07-15T06:27:24.707Z,55.45
2017-07-15T06:28:25.086Z,55.35
2017-07-15T06:29:25.038Z,53.43
2017-07-15T06:30:33.736Z,53.07
2017-07-15T06:31:24.725Z,52.33
2017-07-15T06:32:25.053Z,51.29
2017-07-15T06:33:24.779Z,51
2017-07-15T06:34:24.731Z,51.87
2017-07-15T06:35:33.305Z,52.16
2017-07-15T06:36:25.084Z,51
2017-07-15T06:37:25.125Z,50.52
2017-07-15T06:38:28.458Z,49.68
2017-07-15T06:39:25.095Z,49.58
2017-07-15T06:40:31.406Z,51.29
2017-07-15T06:41:25.110Z,52.81
2017-07-15T06:42:25.116Z,53.94
2017-07-15T06:43:25.124Z,54.87
2017-07-15T06:44:25.127Z,56.48
2017-07-15T06:45:34.429Z,57.9
2017-07-15T06:46:25.135Z,58.83
2017-07-15T06:47:25.154Z,60.53
2017-07-15T06:48:24.821Z,60.43
2017-07-15T06:49:25.163Z,59.66
2017-07-15T06:50:33.657Z,58.54
2017-07-15T06:51:24.823Z,56.96
2017-07-15T06:52:24.827Z,53.91
2017-07-15T06:53:24.845Z,53.74
2017-07-15T06:54:24.837Z,54.42
2017-07-15T06:55:33.492Z,54.97
2017-07-15T06:56:25.231Z,54
2017-07-15T06:57:25.192Z,54.97
2017-07-15T06:58:24.857Z,55.71
2017-07-15T06:59:25.249Z,55.43
2017-07-15T07:00:34.936Z,54.49
2017-07-15T07:01:24.875Z,53.84
2017-07-15T07:02:25.216Z,53.65
2017-07-15T07:03:25.232Z,53.29
2017-07-15T07:04:24.935Z,53.65
2017-07-15T07:05:34.081Z,53.27
2017-07-15T07:06:25.234Z,52.59
2017-07-15T07:07:25.243Z,52.4
2017-07-15T07:08:24.906Z,52.97
2017-07-15T07:09:28.148Z,53.55
2017-07-15T07:10:32.050Z,54.87
2017-07-15T07:11:24.923Z,56.87
2017-07-15T07:12:25.267Z,57.42
2017-07-15T07:13:24.932Z,57.8
2017-07-15T07:14:25.384Z,55.9
2017-07-15T07:15:31.512Z,56.48
2017-07-15T07:16:24.944Z,57.51
2017-07-15T07:17:25.296Z,58.76
2017-07-15T07:18:24.976Z,59.12
2017-07-15T07:19:25.013Z,60.34
2017-07-15T07:20:32.448Z,60.14
2017-07-15T07:21:24.971Z,59.28
2017-07-15T07:22:25.320Z,58.06
2017-07-15T07:23:24.978Z,57.87
2017-07-15T07:24:25.473Z,58.25
2017-07-15T07:25:34.223Z,58.64
2017-07-15T07:26:25.407Z,57.87
2017-07-15T07:27:24.997Z,57.68
2017-07-15T07:28:25.345Z,57.87
2017-07-15T07:29:25.391Z,58.18
2017-07-15T07:30:32.834Z,59.5
2017-07-15T07:31:25.346Z,59.19
2017-07-15T07:32:25.356Z,57.87
2017-07-15T07:33:25.380Z,55.49
2017-07-15T07:34:25.469Z,54.46
2017-07-15T07:35:31.680Z,54.1
2017-07-15T07:36:25.365Z,54.2
2017-07-15T07:37:25.368Z,53.81
2017-07-15T07:38:25.377Z,53.98
2017-07-15T07:39:25.780Z,55.33
2017-07-15T07:40:31.585Z,55.2
2017-07-15T07:41:25.385Z,53.98
2017-07-15T07:42:25.390Z,51.79
2017-07-15T07:43:25.500Z,50.47
2017-07-15T07:44:25.108Z,50.57
2017-07-15T07:45:33.708Z,50.37
2017-07-15T07:46:25.074Z,50.27
2017-07-15T07:47:25.420Z,49.24
2017-07-15T07:48:25.089Z,47.89
2017-07-15T07:49:25.345Z,46.86
2017-07-15T07:50:30.230Z,46.11
2017-07-15T07:51:26.331Z,45.45
2017-07-15T07:52:25.588Z,46.42
2017-07-15T07:53:25.451Z,46.3
2017-07-15T07:54:25.445Z,46.78
2017-07-15T07:55:34.426Z,45.65
2017-07-15T07:56:25.118Z,45.26
2017-07-15T07:57:25.481Z,47.27
2017-07-15T07:58:25.139Z,48.3
2017-07-15T07:59:25.489Z,49.43
2017-07-15T08:00:33.325Z,49.24
2017-07-15T08:01:25.514Z,48.86
2017-07-15T08:02:25.159Z,50.01
2017-07-15T08:03:25.162Z,50.66
2017-07-15T08:04:25.501Z,50.47
2017-07-15T08:05:35.104Z,48.95
2017-07-15T08:06:25.216Z,49.91
2017-07-15T08:07:25.175Z,50.76
2017-07-15T08:08:25.535Z,51.5
2017-07-15T08:09:25.804Z,52.27
2017-07-15T08:10:33.455Z,53.05
2017-07-15T08:11:25.527Z,53.05
2017-07-15T08:12:25.553Z,52.25
2017-07-15T08:13:25.539Z,51.31
2017-07-15T08:14:25.543Z,51.62
2017-07-15T08:15:32.913Z,52.73
2017-07-15T08:16:25.222Z,53.11
2017-07-15T08:17:25.220Z,52.44
2017-07-15T08:18:25.228Z,51.12
2017-07-15T08:19:25.576Z,51.98
2017-07-15T08:20:31.973Z,49.05
2017-07-15T08:21:25.577Z,46.95
2017-07-15T08:22:25.241Z,46.11
2017-07-15T08:23:25.648Z,46.69
2017-07-15T08:24:25.310Z,46.88
2017-07-15T08:25:33.777Z,46.69
2017-07-15T08:26:25.266Z,45.92
2017-07-15T08:27:25.267Z,44.97
2017-07-15T08:28:25.291Z,44.78
2017-07-15T08:29:25.618Z,44.78
2017-07-15T08:30:33.292Z,45.36
2017-07-15T08:31:25.295Z,45.36
2017-07-15T08:32:25.295Z,46.03
2017-07-15T08:33:25.636Z,47.29
2017-07-15T08:34:25.794Z,46.66
2017-07-15T08:35:33.922Z,45.79
2017-07-15T08:36:25.662Z,45.24
2017-07-15T08:37:25.658Z,44.66
2017-07-15T08:38:25.329Z,43.35
2017-07-15T08:39:25.668Z,41.56
2017-07-15T08:41:25.341Z,38.81
2017-07-15T08:42:25.349Z,38.62
2017-07-15T08:43:25.689Z,37.96
2017-07-15T08:44:25.361Z,36.82
2017-07-15T08:45:32.154Z,37.49
2017-07-15T08:46:25.715Z,40.15
2017-07-15T08:47:25.384Z,41.44
2017-07-15T08:48:25.722Z,42.1
2017-07-15T08:49:25.730Z,43.43
2017-07-15T08:50:34.328Z,44.46
2017-07-15T08:51:25.758Z,44.66
2017-07-15T08:52:25.754Z,44.46
2017-07-15T08:53:25.834Z,44.59
2017-07-15T08:54:25.443Z,42.85
2017-07-15T08:55:32.943Z,42.56
2017-07-15T08:56:26.237Z,41.71
2017-07-15T08:57:25.452Z,42.1
2017-07-15T08:58:25.785Z,41.91
2017-07-15T08:59:25.799Z,42.1
2017-07-15T09:00:33.844Z,41.33
2017-07-15T09:01:25.856Z,41.61
2017-07-15T09:02:25.815Z,42.66
2017-07-15T09:03:25.479Z,42.36
2017-07-15T09:04:25.480Z,42.94
2017-07-15T09:05:32.675Z,42.36
2017-07-15T09:06:25.596Z,43.06
2017-07-15T09:07:25.508Z,42.36
2017-07-15T09:08:25.508Z,41.6
2017-07-15T09:09:25.853Z,41.6
2017-07-15T09:10:33.057Z,42.35
2017-07-15T09:11:28.738Z,42.93
2017-07-15T09:12:25.881Z,43.6
2017-07-15T09:13:25.702Z,44.54
2017-07-15T09:14:25.985Z,45
2017-07-15T09:15:31.390Z,45.2
2017-07-15T09:16:25.572Z,46.42
2017-07-15T09:17:26.025Z,45.75
2017-07-15T09:18:25.649Z,45.65
2017-07-15T09:19:25.577Z,45.27
2017-07-15T09:20:32.112Z,44.62
2017-07-15T09:21:25.921Z,44.52
2017-07-15T09:22:25.686Z,44.62
2017-07-15T09:23:25.928Z,44.23
2017-07-15T09:24:25.978Z,44.62
2017-07-15T09:25:31.906Z,45.2
2017-07-15T09:26:25.614Z,45.29
2017-07-15T09:27:26.037Z,44.71
2017-07-15T09:28:25.989Z,45.2
2017-07-15T09:29:25.960Z,46.14
2017-07-15T09:30:33.227Z,45.65
2017-07-15T09:31:25.628Z,45.46
2017-07-15T09:32:25.798Z,45.46
2017-07-15T09:33:25.976Z,45.84
2017-07-15T09:34:26.019Z,45.75
2017-07-15T09:35:28.871Z,45.27
2017-07-15T09:36:26.006Z,46.04
2017-07-15T09:37:25.732Z,46.14
2017-07-15T09:38:26.227Z,45.56
2017-07-15T09:39:26.072Z,44.59
2017-07-15T09:40:32.580Z,44.59
2017-07-15T09:41:26.027Z,45.17
2017-07-15T09:43:33.833Z,45.05
2017-07-15T09:44:29.076Z,45.27
2017-07-15T09:45:29.580Z,45.15
2017-07-15T09:46:26.152Z,45.44
2017-07-15T09:47:25.714Z,45.15
2017-07-15T09:48:25.707Z,44.21
2017-07-15T09:49:26.048Z,44.02
2017-07-15T09:50:31.226Z,44.89
2017-07-15T09:51:26.578Z,45.34
2017-07-15T09:52:25.865Z,46.01
2017-07-15T09:53:26.086Z,45.75
2017-07-15T09:54:25.931Z,45.84
2017-07-15T09:55:32.191Z,46.23
2017-07-15T09:56:26.074Z,45.75
2017-07-15T09:57:26.189Z,46.23
2017-07-15T09:58:26.115Z,45.56
2017-07-15T09:59:25.746Z,45.1
2017-07-15T10:00:30.989Z,44.42
2017-07-15T10:01:27.157Z,43.75
2017-07-15T10:02:26.395Z,43.85
2017-07-15T10:03:26.120Z,44.04
2017-07-15T10:04:25.768Z,44.81
2017-07-15T10:05:32.983Z,44.4
2017-07-15T10:06:26.110Z,45.07
2017-07-15T10:07:26.192Z,45.56
2017-07-15T10:08:25.785Z,45.84
2017-07-15T10:09:26.346Z,45.94
2017-07-15T10:10:33.398Z,45.07
2017-07-15T10:11:26.158Z,45.15
2017-07-15T10:12:25.803Z,45.63
2017-07-15T10:13:26.140Z,46.31
2017-07-15T10:14:30.449Z,46.4
2017-07-15T10:15:32.658Z,46.01
2017-07-15T10:16:25.815Z,46.21
2017-07-15T10:17:26.064Z,45.07
2017-07-15T10:18:25.829Z,45.46
2017-07-15T10:19:25.844Z,45.17
2017-07-15T10:20:30.587Z,45.56
2017-07-15T10:21:26.175Z,45.36
2017-07-15T10:22:26.359Z,44.79
2017-07-15T10:23:26.115Z,44.59
2017-07-15T10:24:26.258Z,44.49
2017-07-15T10:25:33.232Z,44.71
2017-07-15T10:26:26.174Z,44.71
2017-07-15T10:27:26.352Z,44.71
2017-07-15T10:28:26.694Z,43.94
2017-07-15T10:29:26.581Z,44.02
2017-07-15T10:30:33.073Z,41.99
2017-07-15T10:31:26.201Z,41.99
2017-07-15T10:32:26.345Z,42.86
2017-07-15T10:33:26.645Z,42.96
2017-07-15T10:34:25.889Z,43.73
2017-07-15T10:35:30.002Z,43.92
2017-07-15T10:36:26.421Z,44.81
2017-07-15T10:37:26.526Z,45.46
2017-07-15T10:38:25.902Z,44.89
2017-07-15T10:39:25.913Z,44.4
2017-07-15T10:40:32.310Z,44.49
2017-07-15T10:41:26.276Z,44.49
2017-07-15T10:42:25.938Z,44.89
2017-07-15T10:43:26.382Z,44.79
2017-07-15T10:44:26.374Z,44.98
2017-07-15T10:45:31.196Z,44.79
2017-07-15T10:46:26.317Z,44.79
2017-07-15T10:47:26.275Z,44.79
2017-07-15T10:48:26.297Z,44.69
2017-07-15T10:49:26.278Z,45.27
2017-07-15T10:51:26.289Z,44.59
2017-07-15T10:52:25.955Z,44.81
2017-07-15T10:53:26.311Z,44.71
2017-07-15T10:54:25.991Z,43.85
2017-07-15T10:55:32.908Z,43.55
2017-07-15T10:56:26.332Z,44.11
2017-07-15T10:57:25.996Z,44.52
2017-07-15T10:58:26.451Z,44.59
2017-07-15T10:59:25.999Z,44.79
2017-07-15T11:00:32.932Z,44.79
2017-07-15T11:01:26.470Z,45.15
2017-07-15T11:02:26.353Z,46.01
2017-07-15T11:03:26.419Z,46.09
2017-07-15T11:04:26.007Z,46.09
2017-07-15T11:05:28.712Z,45.44
2017-07-15T11:06:26.515Z,43.61
2017-07-15T11:07:26.420Z,43.63
2017-07-15T11:08:26.012Z,42.86
2017-07-15T11:09:26.432Z,42.97
2017-07-15T11:10:30.167Z,42.4
2017-07-15T11:11:26.407Z,42.21
2017-07-15T11:12:26.568Z,42.42
2017-07-15T11:13:26.058Z,41.55
2017-07-15T11:14:26.375Z,41.75
2017-07-15T11:15:31.656Z,41.46
2017-07-15T11:16:26.624Z,41.46
2017-07-15T11:17:26.396Z,41.46
2017-07-15T11:18:26.060Z,42.11
2017-07-15T11:19:26.080Z,43.55
2017-07-15T11:20:32.366Z,44.81
2017-07-15T11:21:26.156Z,44.69
2017-07-15T11:22:26.064Z,45.27
2017-07-15T11:23:26.410Z,45.17
2017-07-15T11:24:26.070Z,44.59
2017-07-15T11:25:33.427Z,44.98
2017-07-15T11:26:26.131Z,44.89
2017-07-15T11:27:26.438Z,44.96
2017-07-15T11:28:26.495Z,45.15
2017-07-15T11:29:26.448Z,45.15
2017-07-15T11:30:33.368Z,44.89
2017-07-15T11:31:26.252Z,43.92
2017-07-15T11:32:26.823Z,43.34
2017-07-15T11:33:26.105Z,42.38
2017-07-15T11:34:26.451Z,42.19
2017-07-15T11:35:30.722Z,42.19
2017-07-15T11:36:26.190Z,42.09
2017-07-15T11:37:26.126Z,42.86
2017-07-15T11:38:26.130Z,43.82
2017-07-15T11:39:26.123Z,42.96
2017-07-15T11:40:32.704Z,42.3
2017-07-15T11:41:26.219Z,41.46
2017-07-15T11:42:26.477Z,40.88
2017-07-15T11:43:26.490Z,40.97
2017-07-15T11:44:26.147Z,41.27
2017-07-15T11:45:29.349Z,40.8
2017-07-15T11:46:28.442Z,39.74
2017-07-15T11:47:26.492Z,39.86
2017-07-15T11:48:26.500Z,41.2
2017-07-15T11:49:26.501Z,39.86
2017-07-15T11:50:33.012Z,39.86
2017-07-15T11:51:26.185Z,39.57
2017-07-15T11:52:26.594Z,38.99
2017-07-15T11:53:26.289Z,39.57
2017-07-15T11:54:26.521Z,39.37
2017-07-15T11:55:32.220Z,38.89
2017-07-15T11:56:26.210Z,38.89
2017-07-15T11:57:26.210Z,38.68
2017-07-15T11:58:26.233Z,38.97
2017-07-15T11:59:26.605Z,39.54
2017-07-15T12:00:32.488Z,39.16
2017-07-15T12:01:26.560Z,39.74
2017-07-15T12:02:26.252Z,40.22
2017-07-15T12:03:26.573Z,39.66
2017-07-15T12:04:26.269Z,39.47
2017-07-15T12:05:33.170Z,39.11
2017-07-15T12:06:26.577Z,38.51
2017-07-15T12:07:26.589Z,38.99
2017-07-15T12:08:26.262Z,38.79
2017-07-15T12:09:26.588Z,39.06
2017-07-15T12:10:32.233Z,39.06
2017-07-15T12:11:26.820Z,38.78
2017-07-15T12:12:26.258Z,38.1
2017-07-15T12:13:26.604Z,38.68
2017-07-15T12:14:26.608Z,38.87
2017-07-15T12:15:31.478Z,39.53
2017-07-15T12:16:26.629Z,39.53
2017-07-15T12:17:26.629Z,39.72
2017-07-15T12:18:26.303Z,38.85
2017-07-15T12:19:26.314Z,38.66
2017-07-15T12:20:31.370Z,39.54
2017-07-15T12:21:26.758Z,38.58
2017-07-15T12:22:26.365Z,38.39
2017-07-15T12:23:26.337Z,38.2
2017-07-15T12:24:26.744Z,38.12
2017-07-15T12:25:32.818Z,37.93
2017-07-15T12:26:26.792Z,38.12
2017-07-15T12:27:26.378Z,38.97
2017-07-15T12:28:26.676Z,39.54
2017-07-15T12:29:26.675Z,39.34
2017-07-15T12:30:32.141Z,40.88
2017-07-15T12:31:26.343Z,39.99
2017-07-15T12:32:27.031Z,40.66
2017-07-15T12:33:26.349Z,40.76
2017-07-15T12:34:26.711Z,39.82
2017-07-15T12:35:33.514Z,39.62
2017-07-15T12:36:26.363Z,39.16
2017-07-15T12:37:27.086Z,38.49
2017-07-15T12:38:26.704Z,37.63
2017-07-15T12:39:26.716Z,37.45
2017-07-15T12:40:32.346Z,37.45
2017-07-15T12:41:26.727Z,37.25
2017-07-15T12:42:26.793Z,38.21
2017-07-15T12:43:26.388Z,38.31
2017-07-15T12:44:26.800Z,37.63
2017-07-15T12:45:32.337Z,37.54
2017-07-15T12:46:26.761Z,36.67
2017-07-15T12:47:29.127Z,36.98
2017-07-15T12:48:27.111Z,36.3
2017-07-15T12:49:26.441Z,36.59
2017-07-15T12:50:31.975Z,36.4
2017-07-15T12:51:26.775Z,37.15
2017-07-15T12:52:26.925Z,37.35
2017-07-15T12:53:26.444Z,37.15
2017-07-15T12:54:26.460Z,37.15
2017-07-15T12:55:33.181Z,37.25
2017-07-15T12:56:26.453Z,36.87
2017-07-15T12:57:26.864Z,36.96
2017-07-15T12:58:26.899Z,37.25
2017-07-15T12:59:26.465Z,38.21
2017-07-15T13:00:32.600Z,37.63
2017-07-15T13:01:26.481Z,37.73